Time;durP1;ratioP1;P1;durP2;ratioP2;P2;SDS_P1;SDS_P2;PMS_P1;PMS_P2;Temp;Humidity;BMP_temperature;BMP_pressure;BME280_temperature;BME280_humidity;BME280_pressure;Samples;Min_cycle;Max_cycle;Signal;HPM_P1;HPM_P2
2021/01/07 00:02:09;;;;;;;38.95;26.65;;;179.70;2252.80;;;;;;4993576;28;20030;-77
2021/01/07 00:04:35;;;;;;;41.70;28.80;;;179.60;2252.80;;;;;;4993647;28;20041;-76
2021/01/07 00:07:01;;;;;;;42.13;29.33;;;179.60;2252.80;;;;;;4993541;28;20080;-89
2021/01/07 00:09:27;;;;;;;45.55;30.25;;;179.60;2252.80;;;;;;4994802;28;20056;-88
2021/01/07 00:11:53;;;;;;;44.72;30.17;;;179.50;2252.80;;;;;;4992883;28;20533;-89
2021/01/07 00:14:18;;;;;;;46.75;31.85;;;179.50;2252.80;;;;;;4986070;28;20026;-84
2021/01/07 00:16:44;;;;;;;50.17;32.20;;;179.50;2252.80;;;;;;4994121;28;20054;-88
2021/01/07 00:19:11;;;;;;;43.33;31.13;;;179.50;2252.80;;;;;;4977753;28;20023;-88
2021/01/07 00:21:37;;;;;;;52.13;33.97;;;179.50;2252.80;;;;;;4974558;28;20505;-88
2021/01/07 00:24:03;;;;;;;52.20;33.70;;;179.50;2252.80;;;;;;4974578;28;20114;-77
2021/01/07 00:26:28;;;;;;;49.15;33.78;;;179.50;2252.80;;;;;;4975262;28;20058;-84
2021/01/07 00:28:54;;;;;;;52.03;34.58;;;179.50;2252.80;;;;;;4974067;28;20038;-87
2021/01/07 00:31:20;;;;;;;53.53;34.72;;;179.40;2252.80;;;;;;4974302;28;20057;-87
2021/01/07 00:33:46;;;;;;;49.83;35.10;;;179.40;2252.80;;;;;;4974287;28;20023;-89
2021/01/07 00:36:17;;;;;;;43.65;31.17;;;179.20;2252.80;;;;;;4982795;28;20030;-89
2021/01/07 00:38:43;;;;;;;44.63;30.33;;;179.20;2252.80;;;;;;4980490;28;20030;-89
2021/01/07 00:41:09;;;;;;;39.08;29.17;;;179.20;2252.80;;;;;;4978326;28;20039;-83
2021/01/07 00:43:34;;;;;;;39.22;28.10;;;179.20;2252.80;;;;;;4979358;28;20150;-88
2021/01/07 00:46:00;;;;;;;38.57;26.57;;;154.50;2252.80;;;;;;4985365;28;20121;-89
2021/01/07 00:48:26;;;;;;;38.67;26.23;;;154.50;2252.80;;;;;;4996491;28;20041;-90
2021/01/07 00:50:52;;;;;;;34.85;24.92;;;154.40;2252.80;;;;;;4979286;28;20435;-89
2021/01/07 00:53:18;;;;;;;37.40;27.08;;;154.40;2252.80;;;;;;4979402;28;20030;-88
2021/01/07 00:55:44;;;;;;;40.60;27.27;;;154.30;2252.80;;;;;;4981699;28;20464;-87
2021/01/07 00:58:10;;;;;;;36.87;25.30;;;154.30;2252.80;;;;;;4997700;28;20117;-76
2021/01/07 01:00:36;;;;;;;37.55;26.08;;;154.20;2252.80;;;;;;4997889;28;20056;-87
2021/01/07 01:03:04;;;;;;;36.43;25.40;;;154.30;2252.80;;;;;;4998661;28;20026;-86
2021/01/07 01:05:30;;;;;;;37.78;25.83;;;154.30;2252.80;;;;;;4998296;28;20041;-76
2021/01/07 01:07:56;;;;;;;34.70;24.37;;;154.30;2252.80;;;;;;4998342;28;20069;-87
2021/01/07 01:10:22;;;;;;;35.17;24.90;;;154.20;2252.80;;;;;;4996917;28;20054;-78
2021/01/07 01:12:47;;;;;;;37.97;25.92;;;154.20;2252.80;;;;;;4997087;28;20077;-88
2021/01/07 01:15:13;;;;;;;41.07;27.40;;;154.20;2252.80;;;;;;4996733;28;20030;-87
2021/01/07 01:17:41;;;;;;;56.50;35.03;;;154.30;2252.80;;;;;;4996614;28;20117;-77
2021/01/07 01:20:12;;;;;;;69.43;39.57;;;154.30;2252.80;;;;;;4996726;28;20034;-88
2021/01/07 01:22:39;;;;;;;88.95;51.08;;;154.30;2252.80;;;;;;4997934;28;20097;-89
2021/01/07 01:25:08;;;;;;;90.80;54.15;;;154.30;2252.80;;;;;;4996552;28;20066;-88
2021/01/07 01:27:39;;;;;;;73.63;45.17;;;154.30;2252.80;;;;;;4997705;28;20023;-83
2021/01/07 01:30:06;;;;;;;59.83;38.37;;;154.30;2252.80;;;;;;4996638;28;20035;-87
2021/01/07 01:32:40;;;;;;;62.80;35.40;;;154.20;2252.80;;;;;;4997774;28;20022;-76
2021/01/07 01:35:08;;;;;;;60.00;36.65;;;154.20;2252.80;;;;;;4997728;28;20030;-87
2021/01/07 01:37:38;;;;;;;50.67;32.10;;;154.30;2252.80;;;;;;4996293;28;20105;-76
2021/01/07 01:40:09;;;;;;;56.92;33.78;;;154.20;2252.80;;;;;;4997431;28;20046;-85
2021/01/07 01:42:35;;;;;;;56.27;33.37;;;154.20;2252.80;;;;;;4997462;28;20563;-88
2021/01/07 01:45:01;;;;;;;57.47;33.00;;;154.20;2252.80;;;;;;4996199;28;20125;-77
2021/01/07 01:47:27;;;;;;;50.73;30.93;;;154.20;2252.80;;;;;;4997432;28;20077;-88
2021/01/07 01:49:55;;;;;;;49.47;31.60;;;154.20;2252.80;;;;;;4997112;28;20034;-76
2021/01/07 01:52:23;;;;;;;51.83;32.70;;;154.20;2252.80;;;;;;4997012;28;20027;-76
2021/01/07 01:54:49;;;;;;;51.13;33.40;;;154.10;2252.80;;;;;;4997326;28;20038;-78
2021/01/07 01:57:16;;;;;;;60.77;36.80;;;154.00;2252.80;;;;;;4997174;28;20121;-88
2021/01/07 01:59:42;;;;;;;69.10;40.03;;;154.00;2252.80;;;;;;4996780;28;20503;-78
2021/01/07 02:02:13;;;;;;;87.20;49.03;;;153.90;2252.80;;;;;;4997358;28;20037;-88
2021/01/07 02:04:39;;;;;;;84.10;48.30;;;153.80;2252.80;;;;;;4995795;28;20030;-82
2021/01/07 02:07:10;;;;;;;84.93;47.97;;;153.90;2252.80;;;;;;4995970;28;20052;-82
2021/01/07 02:09:37;;;;;;;80.20;47.67;;;153.90;2252.80;;;;;;4997422;28;20031;-88
2021/01/07 02:12:03;;;;;;;84.87;48.37;;;153.90;2252.80;;;;;;4995873;28;20038;-87
2021/01/07 02:14:29;;;;;;;78.43;46.20;;;153.90;2252.80;;;;;;4995360;28;20045;-80
2021/01/07 02:16:55;;;;;;;84.85;47.90;;;153.90;2252.80;;;;;;4996932;28;20026;-87
2021/01/07 02:19:24;;;;;;;78.00;47.80;;;153.90;2252.80;;;;;;4995462;28;20030;-90
2021/01/07 02:21:50;;;;;;;67.47;44.00;;;153.80;2252.80;;;;;;4996584;28;20113;-82
2021/01/07 02:24:18;;;;;;;74.20;44.40;;;153.80;2252.80;;;;;;4996524;28;20537;-77
2021/01/07 02:26:45;;;;;;;70.03;44.50;;;153.80;2252.80;;;;;;4995568;28;20026;-76
2021/01/07 02:29:11;;;;;;;78.37;49.60;;;153.80;2252.80;;;;;;4996649;28;20031;-76
2021/01/07 02:31:37;;;;;;;74.93;49.90;;;153.80;2252.80;;;;;;4995217;28;20030;-90
2021/01/07 02:34:03;;;;;;;75.73;47.57;;;153.70;2252.80;;;;;;4996461;28;20037;-91
2021/01/07 02:36:29;;;;;;;74.50;49.00;;;153.70;2252.80;;;;;;4996537;28;20030;-78
2021/01/07 02:38:56;;;;;;;78.83;52.40;;;153.70;2252.80;;;;;;4996333;28;20125;-90
2021/01/07 02:41:22;;;;;;;76.03;50.27;;;153.60;2252.80;;;;;;4995410;28;20041;-90
2021/01/07 02:43:47;;;;;;;71.60;50.00;;;153.60;2252.80;;;;;;4996593;28;20085;-91
2021/01/07 02:46:13;;;;;;;75.00;50.43;;;153.60;2252.80;;;;;;4996112;28;20034;-91
2021/01/07 02:48:39;;;;;;;71.53;49.30;;;153.60;2252.80;;;;;;4995430;28;20049;-77
2021/01/07 02:51:05;;;;;;;75.63;50.97;;;153.60;2252.80;;;;;;4995244;28;20514;-76
2021/01/07 02:53:31;;;;;;;71.90;49.20;;;153.60;2252.80;;;;;;4994925;28;20122;-76
2021/01/07 02:55:57;;;;;;;72.80;50.27;;;153.60;2252.80;;;;;;4994951;28;20459;-90
2021/01/07 02:58:23;;;;;;;70.13;49.83;;;153.60;2252.80;;;;;;4996102;28;20034;-76
2021/01/07 03:00:48;;;;;;;70.37;48.97;;;128.90;2252.80;;;;;;4995839;28;20065;-85
2021/01/07 03:03:14;;;;;;;74.43;50.10;;;128.90;2252.80;;;;;;4994467;28;20041;-86
2021/01/07 03:05:40;;;;;;;77.87;51.93;;;128.90;2252.80;;;;;;4996050;28;20037;-87
2021/01/07 03:08:06;;;;;;;85.93;54.43;;;128.80;2252.80;;;;;;4994786;28;20113;-88
2021/01/07 03:10:32;;;;;;;87.77;56.43;;;128.80;2252.80;;;;;;4996066;28;20023;-76
2021/01/07 03:12:58;;;;;;;68.60;49.53;;;128.80;2252.80;;;;;;4995868;28;20022;-88
2021/01/07 03:15:24;;;;;;;71.17;50.27;;;128.80;2252.80;;;;;;4995813;28;20376;-88
2021/01/07 03:17:50;;;;;;;67.17;47.13;;;128.90;2252.80;;;;;;4996120;28;20026;-76
2021/01/07 03:20:16;;;;;;;66.10;49.07;;;128.80;2252.80;;;;;;4995870;28;20069;-87
2021/01/07 03:22:42;;;;;;;67.30;48.67;;;128.90;2252.80;;;;;;4994409;28;20026;-87
2021/01/07 03:25:09;;;;;;;66.73;48.07;;;128.90;2252.80;;;;;;4995566;28;20474;-90
2021/01/07 03:27:37;;;;;;;67.67;48.77;;;128.80;2252.80;;;;;;4995332;28;20022;-90
2021/01/07 03:30:07;;;;;;;63.57;46.60;;;128.80;2252.80;;;;;;4994186;28;20030;-76
2021/01/07 03:32:35;;;;;;;68.60;47.47;;;128.80;2252.80;;;;;;4994366;28;20054;-89
2021/01/07 03:35:01;;;;;;;64.60;47.17;;;128.70;2252.80;;;;;;4994186;28;20490;-88
2021/01/07 03:37:27;;;;;;;68.53;49.17;;;128.70;2252.80;;;;;;4995641;28;20022;-76
2021/01/07 03:39:53;;;;;;;68.10;49.33;;;128.70;2252.80;;;;;;4994010;28;20397;-76
2021/01/07 03:42:19;;;;;;;69.57;51.57;;;128.70;2252.80;;;;;;4995230;28;20386;-84
2021/01/07 03:44:45;;;;;;;72.47;52.53;;;128.70;2252.80;;;;;;4994087;28;20030;-90
2021/01/07 03:47:10;;;;;;;74.13;49.50;;;128.70;2252.80;;;;;;4994203;28;20029;-77
2021/01/07 03:49:37;;;;;;;76.27;53.10;;;128.60;2252.80;;;;;;4994883;28;20050;-77
2021/01/07 03:52:03;;;;;;;72.33;53.17;;;128.60;2252.80;;;;;;4993878;28;20026;-76
2021/01/07 03:54:29;;;;;;;70.33;51.90;;;128.60;2252.80;;;;;;4993804;28;20030;-80
2021/01/07 03:56:55;;;;;;;73.60;52.40;;;128.50;2252.80;;;;;;4993737;28;20022;-88
2021/01/07 03:59:21;;;;;;;75.63;51.30;;;128.50;2252.80;;;;;;4994752;28;20053;-77
2021/01/07 04:01:47;;;;;;;73.20;52.33;;;128.40;2252.80;;;;;;4993736;28;20030;-86
2021/01/07 04:04:13;;;;;;;65.93;48.47;;;128.30;2252.80;;;;;;4993777;28;20022;-89
2021/01/07 04:06:39;;;;;;;70.83;51.07;;;128.30;2252.80;;;;;;4993904;28;20045;-79
2021/01/07 04:09:05;;;;;;;70.83;50.27;;;128.30;2252.80;;;;;;4994732;28;20026;-88
2021/01/07 04:11:31;;;;;;;69.17;50.80;;;128.30;2252.80;;;;;;4993547;28;20037;-76
2021/01/07 04:13:57;;;;;;;71.33;51.63;;;128.30;2252.80;;;;;;4994279;28;20030;-88
2021/01/07 04:16:24;;;;;;;68.40;49.87;;;128.30;2252.80;;;;;;4993416;28;20030;-89
2021/01/07 04:18:50;;;;;;;65.00;47.13;;;128.20;2252.80;;;;;;4994581;28;20549;-76
2021/01/07 04:21:19;;;;;;;76.23;52.13;;;128.20;2252.80;;;;;;4993433;28;20125;-76
2021/01/07 04:23:46;;;;;;;71.73;50.97;;;128.20;2252.80;;;;;;4994460;28;20383;-76
2021/01/07 04:26:13;;;;;;;73.83;51.90;;;128.10;2252.80;;;;;;4993304;28;20390;-81
2021/01/07 04:28:39;;;;;;;77.10;54.23;;;128.20;2252.80;;;;;;4993121;28;20190;-77
2021/01/07 04:31:05;;;;;;;75.67;52.60;;;128.20;2252.80;;;;;;4994245;28;20123;-88
2021/01/07 04:33:31;;;;;;;77.33;51.77;;;128.10;2252.80;;;;;;4992868;28;20041;-76
2021/01/07 04:35:57;;;;;;;81.13;53.07;;;128.10;2252.80;;;;;;4994755;28;20037;-88
2021/01/07 04:38:23;;;;;;;78.40;52.63;;;128.10;2252.80;;;;;;4993241;28;20474;-89
2021/01/07 04:40:48;;;;;;;78.23;51.63;;;128.00;2252.80;;;;;;4994265;28;20422;-90
2021/01/07 04:43:14;;;;;;;88.77;56.13;;;128.00;2252.80;;;;;;4993326;28;20114;-76
2021/01/07 04:45:40;;;;;;;85.93;55.30;;;103.30;2227.20;;;;;;4993994;28;20042;-76
2021/01/07 04:48:08;;;;;;;88.27;58.10;;;103.30;2227.20;;;;;;4993346;28;20503;-89
2021/01/07 04:50:34;;;;;;;89.20;60.07;;;103.20;2227.20;;;;;;4994685;28;20031;-89
2021/01/07 04:53:01;;;;;;;96.07;63.70;;;103.10;2227.20;;;;;;4994361;28;20026;-76
2021/01/07 04:55:27;;;;;;;88.13;57.43;;;103.10;2227.20;;;;;;4994419;28;20031;-90
2021/01/07 04:57:55;;;;;;;110.47;55.77;;;103.10;2227.20;;;;;;4993327;28;20077;-89
2021/01/07 05:00:21;;;;;;;252.47;56.03;;;103.00;2227.20;;;;;;4993992;28;20123;-76
2021/01/07 05:02:49;;;;;;;368.57;58.70;;;102.90;2227.20;;;;;;4997641;28;20098;-75
2021/01/07 05:05:15;;;;;;;362.70;63.23;;;102.70;2227.20;;;;;;5003727;28;20027;-75
2021/01/07 05:07:41;;;;;;;319.77;64.93;;;102.70;2227.20;;;;;;4999840;28;20068;-75
2021/01/07 05:10:10;;;;;;;245.83;59.93;;;102.60;2227.20;;;;;;5004413;28;20038;-75
2021/01/07 05:12:37;;;;;;;249.70;55.07;;;102.60;2227.20;;;;;;5003075;28;20026;-75
2021/01/07 05:15:14;;;;;;;235.10;55.73;;;102.60;2227.20;;;;;;5003843;28;20069;-75
2021/01/07 05:17:40;;;;;;;198.97;53.73;;;102.60;2227.20;;;;;;4999755;28;20030;-76
2021/01/07 05:20:13;;;;;;;199.23;56.57;;;102.60;2227.20;;;;;;5001099;28;20372;-75
2021/01/07 05:22:43;;;;;;;238.57;56.33;;;102.50;2227.20;;;;;;4999774;28;20490;-76
2021/01/07 05:25:15;;;;;;;139.73;53.53;;;102.40;2227.20;;;;;;5005783;28;20034;-76
2021/01/07 05:27:42;;;;;;;150.37;55.67;;;102.40;2227.20;;;;;;5005625;28;20089;-75
2021/01/07 05:30:29;;;;;;;157.13;53.47;;;102.40;2227.20;;;;;;5006063;28;20023;-76
2021/01/07 05:33:02;;;;;;;169.37;54.50;;;102.40;2227.20;;;;;;5007893;28;20038;-75
2021/01/07 05:35:29;;;;;;;151.75;51.30;;;77.70;2227.20;;;;;;5003770;28;20007;-75
2021/01/07 05:37:58;;;;;;;150.23;52.50;;;77.60;2227.20;;;;;;5008350;28;20030;-76
2021/01/07 05:40:25;;;;;;;123.23;49.50;;;77.50;2227.20;;;;;;5006210;28;20030;-75
2021/01/07 05:42:59;;;;;;;229.43;56.77;;;77.30;2227.20;;;;;;5006836;28;20018;-76
2021/01/07 05:45:56;;;;;;;188.00;62.60;;;77.20;2227.20;;;;;;5005609;28;20041;-75
2021/01/07 05:48:22;;;;;;;198.87;79.03;;;77.20;2227.20;;;;;;5004050;28;20403;-76
2021/01/07 05:50:53;;;;;;;152.67;69.53;;;77.20;2227.20;;;;;;5008819;28;20037;-76
2021/01/07 05:53:21;;;;;;;171.47;61.40;;;77.20;2227.20;;;;;;5007304;28;20038;-76
2021/01/07 05:55:47;;;;;;;195.87;59.60;;;77.20;2227.20;;;;;;5003710;28;20019;-75
2021/01/07 05:58:14;;;;;;;188.73;60.90;;;77.20;2227.20;;;;;;5004546;28;20023;-75
2021/01/07 06:00:42;;;;;;;155.27;63.93;;;77.10;2227.20;;;;;;5007060;28;20058;-75
2021/01/07 06:03:12;;;;;;;129.60;61.77;;;77.20;2227.20;;;;;;5003841;28;20031;-75
2021/01/07 06:05:39;;;;;;;118.87;60.73;;;77.20;2227.20;;;;;;5003388;28;20007;-75
2021/01/07 06:08:06;;;;;;;123.87;66.30;;;77.20;2227.20;;;;;;5003433;28;20037;-76
2021/01/07 06:10:32;;;;;;;114.83;62.33;;;77.20;2227.20;;;;;;5008039;28;20030;-76
2021/01/07 06:12:58;;;;;;;121.27;64.60;;;77.10;2227.20;;;;;;5006232;28;20486;-75
2021/01/07 06:15:29;;;;;;;127.83;68.03;;;77.10;2227.20;;;;;;5002427;28;20034;-76
2021/01/07 06:17:55;;;;;;;115.73;64.73;;;77.10;2227.20;;;;;;5015051;28;20018;-75
2021/01/07 06:20:24;;;;;;;112.13;63.33;;;77.10;2227.20;;;;;;5013934;28;20022;-75
2021/01/07 06:22:54;;;;;;;113.73;67.60;;;77.00;2227.20;;;;;;5014116;28;20053;-75
2021/01/07 06:25:23;;;;;;;96.27;61.37;;;77.10;2227.20;;;;;;5013991;28;20034;-76
2021/01/07 06:27:50;;;;;;;92.23;57.90;;;77.10;2227.20;;;;;;5012519;28;20027;-78
2021/01/07 06:30:16;;;;;;;88.80;56.30;;;77.00;2227.20;;;;;;5015116;28;20006;-80
2021/01/07 06:32:44;;;;;;;85.63;54.20;;;77.00;2227.20;;;;;;5013417;28;20118;-76
2021/01/07 06:35:14;;;;;;;93.93;59.53;;;77.00;2227.20;;;;;;5014757;28;20049;-76
2021/01/07 06:38:01;;;;;;;81.43;57.53;;;77.00;2227.20;;;;;;5014034;28;20054;-76
2021/01/07 06:40:27;;;;;;;76.23;52.50;;;76.90;2227.20;;;;;;5010808;28;20046;-75
2021/01/07 06:43:12;;;;;;;75.80;55.27;;;76.90;2227.20;;;;;;5012880;28;20033;-76
2021/01/07 06:45:38;;;;;;;91.03;61.67;;;76.90;2227.20;;;;;;5013257;28;20360;-76
2021/01/07 06:48:08;;;;;;;72.90;52.77;;;76.90;2227.20;;;;;;5025471;23;20034;-75
2021/01/07 06:50:41;;;;;;;70.73;50.30;;;76.80;2227.20;;;;;;5032627;28;20036;-76
2021/01/07 06:53:07;;;;;;;79.87;55.60;;;76.90;2227.20;;;;;;5021107;28;20133;-75
2021/01/07 06:55:33;;;;;;;101.47;65.37;;;76.90;2227.20;;;;;;5025561;28;20029;-75
2021/01/07 06:58:03;;;;;;;106.73;67.13;;;76.90;2227.20;;;;;;5027616;28;20041;-75
2021/01/07 07:00:29;;;;;;;148.10;82.40;;;77.00;2227.20;;;;;;5024162;28;20387;-75
2021/01/07 07:03:02;;;;;;;157.57;91.33;;;77.10;2227.20;;;;;;5024385;28;20104;-75
2021/01/07 07:05:33;;;;;;;188.63;108.38;;;77.10;2227.20;;;;;;5028723;28;20030;-75
2021/01/07 07:08:06;;;;;;;139.20;84.60;;;77.20;2227.20;;;;;;5032838;28;20017;-75
2021/01/07 07:10:32;;;;;;;119.15;76.65;;;77.20;2227.20;;;;;;5023172;28;20113;-75
2021/01/07 07:13:00;;;;;;;99.80;63.97;;;77.10;2227.20;;;;;;5025200;28;20139;-75
2021/01/07 07:15:27;;;;;;;124.33;75.87;;;77.10;2227.20;;;;;;5019394;28;20109;-75
2021/01/07 07:17:55;;;;;;;154.37;87.87;;;77.10;2227.20;;;;;;5016474;28;20025;-75
2021/01/07 07:20:25;;;;;;;181.23;100.83;;;77.20;2227.20;;;;;;5017188;28;20475;-75
2021/01/07 07:22:51;;;;;;;148.13;85.70;;;77.20;2227.20;;;;;;5020413;28;20109;-75
2021/01/07 07:25:27;;;;;;;217.57;118.67;;;77.30;2227.20;;;;;;5016802;28;20026;-75
2021/01/07 07:28:00;;;;;;;220.50;122.53;;;77.40;2227.20;;;;;;5020891;28;20471;-75
2021/01/07 07:30:34;;;;;;;178.07;110.25;;;77.40;2227.20;;;;;;5025520;28;20087;-75
2021/01/07 07:33:09;;;;;;;138.80;89.87;;;77.50;2227.20;;;;;;5026653;28;20034;-76
2021/01/07 07:35:43;;;;;;;153.20;102.07;;;77.50;2227.20;;;;;;5024596;28;20014;-75
2021/01/07 07:38:11;;;;;;;115.93;75.63;;;77.50;2227.20;;;;;;5023530;28;20065;-75
2021/01/07 07:40:41;;;;;;;140.87;91.83;;;77.60;2227.20;;;;;;5026872;28;20026;-76
2021/01/07 07:43:09;;;;;;;111.80;69.63;;;77.60;2227.20;;;;;;5032460;28;20013;-75
2021/01/07 07:45:46;;;;;;;109.77;69.10;;;77.70;2227.20;;;;;;5032196;28;20010;-75
2021/01/07 07:48:12;;;;;;;100.77;62.47;;;77.70;2227.20;;;;;;5032871;28;20041;-76
2021/01/07 07:51:11;;;;;;;122.33;75.90;;;102.40;2227.20;;;;;;5033768;28;20018;-76
2021/01/07 07:53:38;;;;;;;89.20;58.47;;;102.40;2227.20;;;;;;5024785;28;20030;-75
2021/01/07 07:56:23;;;;;;;82.97;54.33;;;102.40;2227.20;;;;;;5022743;28;20038;-76
2021/01/07 07:58:58;;;;;;;89.23;57.60;;;102.50;2227.20;;;;;;5025429;28;20052;-76
2021/01/07 08:01:41;;;;;;;83.80;53.70;;;102.40;2227.20;;;;;;5026006;28;20120;-75
2021/01/07 08:04:18;;;;;;;67.57;44.40;;;102.40;2227.20;;;;;;5018809;28;20535;-75
2021/01/07 08:06:46;;;;;;;71.93;48.03;;;102.50;2227.20;;;;;;5022663;28;20045;-75
2021/01/07 08:09:16;;;;;;;66.57;41.80;;;102.60;2227.20;;;;;;5023231;28;20029;-76
2021/01/07 08:11:52;;;;;;;65.53;40.87;;;102.60;2227.20;;;;;;5018023;28;20041;-75
2021/01/07 08:14:23;;;;;;;60.57;37.47;;;102.50;2227.20;;;;;;5018547;28;20512;-70
2021/01/07 08:17:09;;;;;;;59.60;37.93;;;102.60;2227.20;;;;;;5018482;28;20033;-70
2021/01/07 08:19:36;;;;;;;63.27;38.70;;;102.60;2227.20;;;;;;5022394;28;20026;-70
2021/01/07 08:22:03;;;;;;;50.10;32.67;;;102.60;2227.20;;;;;;5032907;28;20034;-71
2021/01/07 08:24:29;;;;;;;48.40;30.63;;;102.60;2227.20;;;;;;5036169;28;20009;-72
2021/01/07 08:27:19;;;;;;;48.83;31.60;;;102.70;2227.20;;;;;;5036786;28;20010;-72
2021/01/07 08:30:12;;;;;;;51.80;31.20;;;102.70;2227.20;;;;;;5035591;28;20037;-76
2021/01/07 08:32:59;;;;;;;48.57;31.73;;;102.70;2227.20;;;;;;5035468;28;20029;-83
2021/01/07 08:35:25;;;;;;;59.67;35.37;;;102.80;2227.20;;;;;;5028123;28;20026;-85
2021/01/07 08:37:52;;;;;;;57.37;36.00;;;102.80;2227.20;;;;;;5022804;28;20018;-72
2021/01/07 08:40:21;;;;;;;48.33;31.73;;;102.90;2227.20;;;;;;5013638;28;20037;-88
2021/01/07 08:42:47;;;;;;;42.33;26.73;;;103.00;2227.20;;;;;;5023931;28;20463;-88
2021/01/07 08:45:12;;;;;;;45.80;28.00;;;103.00;2227.20;;;;;;5031358;28;20113;-71
2021/01/07 08:47:38;;;;;;;37.20;21.70;;;103.00;2227.20;;;;;;5032656;28;20029;-84
2021/01/07 08:50:11;;;;;;;34.03;20.83;;;103.10;2227.20;;;;;;5023723;28;20042;-88
2021/01/07 08:52:51;;;;;;;27.00;17.57;;;103.10;2227.20;;;;;;5016792;28;20050;-90
2021/01/07 08:55:17;;;;;;;30.33;18.07;;;103.10;2227.20;;;;;;5018815;28;20109;-85
2021/01/07 08:57:43;;;;;;;22.53;14.90;;;103.10;2227.20;;;;;;5003622;28;20542;-88
2021/01/07 09:00:17;;;;;;;34.63;22.57;;;103.20;2227.20;;;;;;5002179;28;20074;-90
2021/01/07 09:02:43;;;;;;;;;;;103.30;2227.20;;;;;;4999235;28;20117;-90
2021/01/07 09:05:09;;;;;;;56.33;26.47;;;128.00;2252.80;;;;;;4998662;28;19945;-91
2021/01/07 09:07:35;;;;;;;31.20;16.43;;;103.30;2227.20;;;;;;4998348;28;20479;-91
2021/01/07 09:10:01;;;;;;;51.30;25.67;;;128.10;2252.80;;;;;;4998217;28;20022;-88
2021/01/07 09:12:27;;;;;;;37.60;18.93;;;128.30;2252.80;;;;;;4998079;28;20030;-90
2021/01/07 09:15:09;;;;;;;27.53;17.07;;;128.60;2252.80;;;;;;4998074;28;20058;-81
2021/01/07 09:17:40;;;;;;;36.17;24.07;;;128.80;2252.80;;;;;;4998345;28;20026;-90
2021/01/07 09:20:14;;;;;;;25.07;16.23;;;128.90;2252.80;;;;;;4998215;28;20034;-71
2021/01/07 09:22:41;;;;;;;23.57;14.53;;;153.60;2252.80;;;;;;4996452;28;20026;-71
2021/01/07 09:25:08;;;;;;;21.90;15.00;;;153.60;2227.20;;;;;;4997339;28;20032;-71
2021/01/07 09:27:35;;;;;;;47.67;29.30;;;153.70;2227.20;;;;;;4998567;28;20045;-89
2021/01/07 09:30:01;;;;;;;23.20;16.20;;;153.80;2227.20;;;;;;5010514;28;20026;-76
2021/01/07 09:32:26;;;;;;;28.83;17.93;;;153.80;2227.20;;;;;;4997536;28;20034;-72
2021/01/07 09:34:52;;;;;;;35.30;17.07;;;153.80;2227.20;;;;;;4997743;28;20033;-70
2021/01/07 09:37:22;;;;;;;34.47;18.50;;;153.90;2227.20;;;;;;4997412;28;20018;-87
2021/01/07 09:39:51;;;;;;;32.67;18.77;;;154.00;2227.20;;;;;;4997650;28;20103;-74
2021/01/07 09:42:19;;;;;;;30.10;16.83;;;154.00;2201.60;;;;;;4997015;28;20383;-72
2021/01/07 09:44:46;;;;;;;35.23;18.90;;;154.10;2201.60;;;;;;4997081;28;20128;-76
2021/01/07 09:47:12;;;;;;;25.50;14.77;;;154.20;2201.60;;;;;;4996988;28;20383;-73
2021/01/07 09:49:38;;;;;;;19.53;12.73;;;154.50;2176.00;;;;;;4995267;28;20074;-72
2021/01/07 09:52:05;;;;;;;26.50;15.80;;;179.20;2150.40;;;;;;4996312;28;20122;-77
2021/01/07 09:54:31;;;;;;;29.75;18.45;;;179.20;2150.40;;;;;;4996722;28;20038;-74
2021/01/07 09:56:58;;;;;;;26.17;17.48;;;179.40;2176.00;;;;;;4996593;28;20489;-76
2021/01/07 09:59:27;;;;;;;22.02;14.90;;;179.50;2124.80;;;;;;4996970;28;20487;-85
2021/01/07 10:02:15;;;;;;;20.27;13.38;;;180.10;2073.60;;;;;;4997164;28;20025;-70
2021/01/07 10:04:44;;;;;;;22.40;13.85;;;230.40;1920.00;;;;;;4997284;28;20019;-86
2021/01/07 10:07:11;;;;;;;47.00;25.45;;;231.00;1843.20;;;;;;4997108;28;20027;-88
2021/01/07 10:09:38;;;;;;;45.13;23.00;;;230.60;1894.40;;;;;;4996771;28;20030;-89
2021/01/07 10:12:04;;;;;;;24.45;14.07;;;230.50;1894.40;;;;;;4995638;28;20426;-73
2021/01/07 10:14:31;;;;;;;56.55;30.23;;;230.40;1894.40;;;;;;4997071;28;20036;-71
2021/01/07 10:17:03;;;;;;;27.10;16.98;;;205.60;1945.60;;;;;;4996676;28;20438;-88
2021/01/07 10:19:32;;;;;;;26.65;19.20;;;205.40;1996.80;;;;;;4996044;28;20129;-83
2021/01/07 10:22:00;;;;;;;51.70;30.42;;;205.40;1996.80;;;;;;4994973;28;20390;-90
2021/01/07 10:24:27;;;;;;;41.15;22.27;;;230.90;1894.40;;;;;;4996567;28;20061;-91
2021/01/07 10:26:59;;;;;;;25.52;15.55;;;231.30;1843.20;;;;;;4996549;28;20590;-88
2021/01/07 10:29:27;;;;;;;24.70;15.15;;;256.10;1817.60;;;;;;4996923;28;20470;-86
2021/01/07 10:31:55;;;;;;;26.10;16.33;;;231.20;1817.60;;;;;;4996996;28;20391;-86
2021/01/07 10:34:21;;;;;;;22.70;15.13;;;231.20;1817.60;;;;;;4997057;28;20033;-90
2021/01/07 10:36:51;;;;;;;35.65;21.75;;;231.30;1792.00;;;;;;4996610;28;20118;-82
2021/01/07 10:39:21;;;;;;;29.58;16.60;;;231.30;1817.60;;;;;;4996757;28;20382;-73
2021/01/07 10:41:50;;;;;;;22.77;14.52;;;231.20;1817.60;;;;;;4997707;28;20026;-85
2021/01/07 10:44:19;;;;;;;23.67;16.00;;;230.80;1817.60;;;;;;4996999;28;20061;-82
2021/01/07 10:46:45;;;;;;;23.25;15.38;;;230.60;1868.80;;;;;;4996792;28;20054;-72
2021/01/07 10:49:18;;;;;;;37.75;20.98;;;230.50;1920.00;;;;;;4995678;28;20061;-86
2021/01/07 10:52:11;;;;;;;25.30;15.60;;;205.70;1920.00;;;;;;4996853;28;20029;-91
2021/01/07 10:55:10;;;;;;;32.88;19.52;;;205.70;1945.60;;;;;;4996539;28;20085;-91
2021/01/07 10:57:48;;;;;;;36.05;22.17;;;205.70;1920.00;;;;;;4995055;28;20483;-88
2021/01/07 11:00:26;;;;;;;33.13;20.67;;;230.40;1945.60;;;;;;4996033;28;20486;-88
2021/01/07 11:03:19;;;;;;;43.50;25.17;;;230.60;1894.40;;;;;;4996205;28;20027;-84
2021/01/07 11:05:52;;;;;;;49.17;28.13;;;230.90;1868.80;;;;;;4995147;28;20435;-91
2021/01/07 11:08:31;;;;;;;40.38;22.50;;;231.00;1843.20;;;;;;4995800;28;20014;-86
2021/01/07 11:11:00;;;;;;;20.65;14.93;;;230.90;1868.80;;;;;;4996017;28;20092;-90
2021/01/07 11:13:36;;;;;;;24.08;16.48;;;231.00;1868.80;;;;;;4995699;28;20034;-90
2021/01/07 11:16:03;;;;;;;21.77;15.38;;;231.30;1817.60;;;;;;4995872;28;20022;-73
2021/01/07 11:18:33;;;;;;;18.00;12.52;;;256.20;1740.80;;;;;;4996045;28;20032;-72
2021/01/07 11:21:04;;;;;;;20.10;13.23;;;256.10;1766.40;;;;;;4996319;28;20039;-83
2021/01/07 11:23:33;;;;;;;26.02;16.52;;;256.20;1766.40;;;;;;4995106;28;20087;-86
2021/01/07 11:25:59;;;;;;;24.40;16.95;;;256.10;1766.40;;;;;;4995400;28;20555;-88
2021/01/07 11:28:27;;;;;;;28.10;16.23;;;231.30;1766.40;;;;;;4995713;28;20033;-89
2021/01/07 11:30:53;;;;;;;28.38;17.02;;;231.00;1843.20;;;;;;4995713;28;20034;-72
2021/01/07 11:33:19;;;;;;;26.08;15.98;;;230.90;1843.20;;;;;;4995971;28;20045;-88
2021/01/07 11:35:47;;;;;;;25.23;15.98;;;230.70;1868.80;;;;;;4995404;28;20057;-73
2021/01/07 11:38:26;;;;;;;25.98;16.48;;;230.60;1894.40;;;;;;4995589;28;20022;-86
2021/01/07 11:41:06;;;;;;;22.48;15.52;;;230.60;1894.40;;;;;;4995505;28;20479;-90
2021/01/07 11:43:58;;;;;;;26.30;17.75;;;230.50;1868.80;;;;;;4995636;28;20034;-72
2021/01/07 11:46:29;;;;;;;23.10;14.75;;;230.40;1920.00;;;;;;4995347;28;20479;-90
2021/01/07 11:49:02;;;;;;;28.05;16.85;;;205.70;1945.60;;;;;;4995192;28;20081;-81
2021/01/07 11:51:28;;;;;;;25.52;17.20;;;205.70;1945.60;;;;;;4995368;28;20019;-91
2021/01/07 11:54:04;;;;;;;25.63;16.98;;;205.50;1971.20;;;;;;4995368;28;20434;-90
2021/01/07 11:56:32;;;;;;;38.97;24.58;;;205.50;1996.80;;;;;;4995181;28;20018;-85
2021/01/07 11:59:04;;;;;;;43.22;27.35;;;205.50;1996.80;;;;;;4995067;28;20022;-90
2021/01/07 12:01:37;;;;;;;25.48;17.95;;;205.50;1996.80;;;;;;4995396;28;20054;-80
2021/01/07 12:04:13;;;;;;;30.77;18.98;;;205.40;1971.20;;;;;;4995708;28;20097;-91
2021/01/07 12:06:45;;;;;;;28.23;16.73;;;205.50;1971.20;;;;;;4994879;28;20026;-82
2021/01/07 12:09:20;;;;;;;29.25;18.77;;;205.60;1920.00;;;;;;4997848;28;20089;-76